sensor_id;sensor_type;location;lat;lon;timestamp;P1;durP1;ratioP1;P2;durP2;ratioP2
9783;SDS011;4931;44.874;-1.092;2023-07-31T00:01:59;19.05;;;6.20;;
9783;SDS011;4931;44.874;-1.092;2023-07-31T00:04:24;15.77;;;6.13;;
9783;SDS011;4931;44.874;-1.092;2023-07-31T00:06:50;13.45;;;6.30;;
9783;SDS011;4931;44.874;-1.092;2023-07-31T00:09:15;13.77;;;5.97;;
9783;SDS011;4931;44.874;-1.092;2023-07-31T00:11:41;15.25;;;6.15;;
9783;SDS011;4931;44.874;-1.092;2023-07-31T00:14:06;17.58;;;6.10;;
9783;SDS011;4931;44.874;-1.092;2023-07-31T00:16:32;16.85;;;6.68;;
9783;SDS011;4931;44.874;-1.092;2023-07-31T00:18:57;15.05;;;6.45;;
9783;SDS011;4931;44.874;-1.092;2023-07-31T00:21:23;14.57;;;6.35;;
9783;SDS011;4931;44.874;-1.092;2023-07-31T00:23:48;15.73;;;6.90;;
9783;SDS011;4931;44.874;-1.092;2023-07-31T00:26:14;16.33;;;7.13;;
9783;SDS011;4931;44.874;-1.092;2023-07-31T00:28:39;22.35;;;6.95;;
9783;SDS011;4931;44.874;-1.092;2023-07-31T00:31:05;17.45;;;7.35;;
9783;SDS011;4931;44.874;-1.092;2023-07-31T00:33:31;17.45;;;6.60;;
9783;SDS011;4931;44.874;-1.092;2023-07-31T00:35:56;15.93;;;6.55;;
9783;SDS011;4931;44.874;-1.092;2023-07-31T00:38:22;13.18;;;6.10;;
9783;SDS011;4931;44.874;-1.092;2023-07-31T00:40:47;14.75;;;6.22;;
9783;SDS011;4931;44.874;-1.092;2023-07-31T00:43:13;15.32;;;5.90;;
9783;SDS011;4931;44.874;-1.092;2023-07-31T00:45:38;15.05;;;6.35;;
9783;SDS011;4931;44.874;-1.092;2023-07-31T00:48:04;13.48;;;6.30;;
9783;SDS011;4931;44.874;-1.092;2023-07-31T00:50:31;15.77;;;5.93;;
9783;SDS011;4931;44.874;-1.092;2023-07-31T00:52:58;13.73;;;6.05;;
9783;SDS011;4931;44.874;-1.092;2023-07-31T00:55:24;14.88;;;6.32;;
9783;SDS011;4931;44.874;-1.092;2023-07-31T00:57:49;13.38;;;6.00;;
9783;SDS011;4931;44.874;-1.092;2023-07-31T01:00:17;13.20;;;6.03;;
9783;SDS011;4931;44.874;-1.092;2023-07-31T01:02:43;15.98;;;6.47;;
9783;SDS011;4931;44.874;-1.092;2023-07-31T01:05:09;17.52;;;6.45;;
9783;SDS011;4931;44.874;-1.092;2023-07-31T01:07:55;13.82;;;6.22;;
9783;SDS011;4931;44.874;-1.092;2023-07-31T01:10:28;17.13;;;6.95;;
9783;SDS011;4931;44.874;-1.092;2023-07-31T01:13:00;16.50;;;6.22;;
9783;SDS011;4931;44.874;-1.092;2023-07-31T01:15:28;16.35;;;6.93;;
9783;SDS011;4931;44.874;-1.092;2023-07-31T01:17:53;14.65;;;6.80;;
9783;SDS011;4931;44.874;-1.092;2023-07-31T01:22:54;15.60;;;6.13;;
9783;SDS011;4931;44.874;-1.092;2023-07-31T01:31:12;14.05;;;6.30;;
9783;SDS011;4931;44.874;-1.092;2023-07-31T01:33:41;18.70;;;6.80;;
9783;SDS011;4931;44.874;-1.092;2023-07-31T01:36:07;12.55;;;5.35;;
9783;SDS011;4931;44.874;-1.092;2023-07-31T01:38:33;14.85;;;6.57;;
9783;SDS011;4931;44.874;-1.092;2023-07-31T01:40:59;15.73;;;6.85;;
9783;SDS011;4931;44.874;-1.092;2023-07-31T01:43:24;17.10;;;7.72;;
9783;SDS011;4931;44.874;-1.092;2023-07-31T01:45:50;17.92;;;5.80;;
9783;SDS011;4931;44.874;-1.092;2023-07-31T01:48:15;12.80;;;6.20;;
9783;SDS011;4931;44.874;-1.092;2023-07-31T01:50:40;14.80;;;6.45;;
9783;SDS011;4931;44.874;-1.092;2023-07-31T01:53:06;15.55;;;6.50;;
9783;SDS011;4931;44.874;-1.092;2023-07-31T01:55:32;16.90;;;6.32;;
9783;SDS011;4931;44.874;-1.092;2023-07-31T01:57:57;15.10;;;6.38;;
9783;SDS011;4931;44.874;-1.092;2023-07-31T02:00:22;13.50;;;6.35;;
9783;SDS011;4931;44.874;-1.092;2023-07-31T02:02:48;15.82;;;6.88;;
9783;SDS011;4931;44.874;-1.092;2023-07-31T02:05:13;14.90;;;5.53;;
9783;SDS011;4931;44.874;-1.092;2023-07-31T02:07:39;14.95;;;6.47;;
9783;SDS011;4931;44.874;-1.092;2023-07-31T02:10:05;13.73;;;5.85;;
9783;SDS011;4931;44.874;-1.092;2023-07-31T02:12:30;15.27;;;6.00;;
9783;SDS011;4931;44.874;-1.092;2023-07-31T02:14:57;14.20;;;6.20;;
9783;SDS011;4931;44.874;-1.092;2023-07-31T02:17:22;11.55;;;5.65;;
9783;SDS011;4931;44.874;-1.092;2023-07-31T02:19:48;11.43;;;6.18;;
9783;SDS011;4931;44.874;-1.092;2023-07-31T02:22:13;13.02;;;5.40;;
9783;SDS011;4931;44.874;-1.092;2023-07-31T02:24:39;12.80;;;5.95;;
9783;SDS011;4931;44.874;-1.092;2023-07-31T02:27:04;14.10;;;5.93;;
9783;SDS011;4931;44.874;-1.092;2023-07-31T02:29:30;11.50;;;5.45;;
9783;SDS011;4931;44.874;-1.092;2023-07-31T02:31:55;15.52;;;5.72;;
9783;SDS011;4931;44.874;-1.092;2023-07-31T02:34:21;14.63;;;5.65;;
9783;SDS011;4931;44.874;-1.092;2023-07-31T02:36:46;12.65;;;5.38;;
9783;SDS011;4931;44.874;-1.092;2023-07-31T02:39:12;12.75;;;5.13;;
9783;SDS011;4931;44.874;-1.092;2023-07-31T02:41:37;17.60;;;5.82;;
9783;SDS011;4931;44.874;-1.092;2023-07-31T02:44:03;13.68;;;5.97;;
9783;SDS011;4931;44.874;-1.092;2023-07-31T02:46:28;12.70;;;5.70;;
9783;SDS011;4931;44.874;-1.092;2023-07-31T02:48:54;13.27;;;5.63;;
9783;SDS011;4931;44.874;-1.092;2023-07-31T02:51:19;13.50;;;5.45;;
9783;SDS011;4931;44.874;-1.092;2023-07-31T02:53:46;14.32;;;5.43;;
9783;SDS011;4931;44.874;-1.092;2023-07-31T02:56:13;13.68;;;5.55;;
9783;SDS011;4931;44.874;-1.092;2023-07-31T02:58:38;13.68;;;5.18;;
9783;SDS011;4931;44.874;-1.092;2023-07-31T03:01:04;12.57;;;5.50;;
9783;SDS011;4931;44.874;-1.092;2023-07-31T03:03:29;14.82;;;5.78;;
9783;SDS011;4931;44.874;-1.092;2023-07-31T03:05:55;13.07;;;5.82;;
9783;SDS011;4931;44.874;-1.092;2023-07-31T03:08:20;13.85;;;5.50;;
9783;SDS011;4931;44.874;-1.092;2023-07-31T03:10:46;11.65;;;5.47;;
9783;SDS011;4931;44.874;-1.092;2023-07-31T03:13:11;12.38;;;5.47;;
9783;SDS011;4931;44.874;-1.092;2023-07-31T03:15:37;10.82;;;5.15;;
9783;SDS011;4931;44.874;-1.092;2023-07-31T03:18:02;16.30;;;5.95;;
9783;SDS011;4931;44.874;-1.092;2023-07-31T03:20:28;14.07;;;5.88;;
9783;SDS011;4931;44.874;-1.092;2023-07-31T03:22:53;14.20;;;6.38;;
9783;SDS011;4931;44.874;-1.092;2023-07-31T03:25:19;11.93;;;5.40;;
9783;SDS011;4931;44.874;-1.092;2023-07-31T03:27:44;13.75;;;6.07;;
9783;SDS011;4931;44.874;-1.092;2023-07-31T03:30:09;12.18;;;5.68;;
9783;SDS011;4931;44.874;-1.092;2023-07-31T03:32:35;13.57;;;5.90;;
9783;SDS011;4931;44.874;-1.092;2023-07-31T03:35:01;13.15;;;5.43;;
9783;SDS011;4931;44.874;-1.092;2023-07-31T03:37:26;13.77;;;5.90;;
9783;SDS011;4931;44.874;-1.092;2023-07-31T03:39:52;15.30;;;6.25;;
9783;SDS011;4931;44.874;-1.092;2023-07-31T03:42:17;14.73;;;5.57;;
9783;SDS011;4931;44.874;-1.092;2023-07-31T03:44:43;16.70;;;6.20;;
9783;SDS011;4931;44.874;-1.092;2023-07-31T03:47:08;17.52;;;6.03;;
9783;SDS011;4931;44.874;-1.092;2023-07-31T03:49:34;17.25;;;6.30;;
9783;SDS011;4931;44.874;-1.092;2023-07-31T03:51:59;13.20;;;6.50;;
9783;SDS011;4931;44.874;-1.092;2023-07-31T03:54:25;13.00;;;5.88;;
9783;SDS011;4931;44.874;-1.092;2023-07-31T03:56:50;15.88;;;6.13;;
9783;SDS011;4931;44.874;-1.092;2023-07-31T03:59:16;14.60;;;6.22;;
9783;SDS011;4931;44.874;-1.092;2023-07-31T04:01:41;14.45;;;5.57;;
9783;SDS011;4931;44.874;-1.092;2023-07-31T04:04:07;15.40;;;6.32;;
9783;SDS011;4931;44.874;-1.092;2023-07-31T04:06:32;15.98;;;5.97;;
9783;SDS011;4931;44.874;-1.092;2023-07-31T04:08:57;16.10;;;6.18;;
9783;SDS011;4931;44.874;-1.092;2023-07-31T04:11:23;12.25;;;5.60;;
9783;SDS011;4931;44.874;-1.092;2023-07-31T04:13:48;17.10;;;5.63;;
9783;SDS011;4931;44.874;-1.092;2023-07-31T04:16:14;14.18;;;5.47;;
9783;SDS011;4931;44.874;-1.092;2023-07-31T04:18:39;14.18;;;6.07;;
9783;SDS011;4931;44.874;-1.092;2023-07-31T04:21:05;12.98;;;5.97;;
9783;SDS011;4931;44.874;-1.092;2023-07-31T04:23:30;15.18;;;5.97;;
9783;SDS011;4931;44.874;-1.092;2023-07-31T04:25:56;15.38;;;6.15;;
9783;SDS011;4931;44.874;-1.092;2023-07-31T04:28:21;16.05;;;6.75;;
9783;SDS011;4931;44.874;-1.092;2023-07-31T04:30:47;17.95;;;6.60;;
9783;SDS011;4931;44.874;-1.092;2023-07-31T04:33:12;18.58;;;6.65;;
9783;SDS011;4931;44.874;-1.092;2023-07-31T04:35:38;15.52;;;6.45;;
9783;SDS011;4931;44.874;-1.092;2023-07-31T04:38:03;14.82;;;6.45;;
9783;SDS011;4931;44.874;-1.092;2023-07-31T04:40:29;14.80;;;6.80;;
9783;SDS011;4931;44.874;-1.092;2023-07-31T04:42:54;18.02;;;6.85;;
9783;SDS011;4931;44.874;-1.092;2023-07-31T04:45:20;21.63;;;7.30;;
9783;SDS011;4931;44.874;-1.092;2023-07-31T04:47:45;14.68;;;7.20;;
9783;SDS011;4931;44.874;-1.092;2023-07-31T04:50:10;18.60;;;6.90;;
9783;SDS011;4931;44.874;-1.092;2023-07-31T04:52:36;17.33;;;6.82;;
9783;SDS011;4931;44.874;-1.092;2023-07-31T04:55:01;16.38;;;6.93;;
9783;SDS011;4931;44.874;-1.092;2023-07-31T04:57:27;17.27;;;7.68;;
9783;SDS011;4931;44.874;-1.092;2023-07-31T04:59:53;16.15;;;8.50;;
9783;SDS011;4931;44.874;-1.092;2023-07-31T05:02:19;15.90;;;7.40;;
9783;SDS011;4931;44.874;-1.092;2023-07-31T05:04:44;13.43;;;7.13;;
9783;SDS011;4931;44.874;-1.092;2023-07-31T05:07:10;16.77;;;7.25;;
9783;SDS011;4931;44.874;-1.092;2023-07-31T05:09:35;20.50;;;8.10;;
9783;SDS011;4931;44.874;-1.092;2023-07-31T05:12:01;16.60;;;6.70;;
9783;SDS011;4931;44.874;-1.092;2023-07-31T05:14:26;17.17;;;7.03;;
9783;SDS011;4931;44.874;-1.092;2023-07-31T05:16:52;19.10;;;7.72;;
9783;SDS011;4931;44.874;-1.092;2023-07-31T05:19:17;18.58;;;6.95;;
9783;SDS011;4931;44.874;-1.092;2023-07-31T05:21:43;22.05;;;8.20;;
9783;SDS011;4931;44.874;-1.092;2023-07-31T05:24:09;22.42;;;7.18;;
9783;SDS011;4931;44.874;-1.092;2023-07-31T05:26:36;19.00;;;7.65;;
9783;SDS011;4931;44.874;-1.092;2023-07-31T05:29:02;16.63;;;7.18;;
9783;SDS011;4931;44.874;-1.092;2023-07-31T05:31:28;19.25;;;7.50;;
9783;SDS011;4931;44.874;-1.092;2023-07-31T05:33:54;17.02;;;7.13;;
9783;SDS011;4931;44.874;-1.092;2023-07-31T05:36:19;20.55;;;8.25;;
9783;SDS011;4931;44.874;-1.092;2023-07-31T05:38:45;21.73;;;7.80;;
9783;SDS011;4931;44.874;-1.092;2023-07-31T05:41:13;25.70;;;8.18;;
9783;SDS011;4931;44.874;-1.092;2023-07-31T05:43:39;17.40;;;7.32;;
9783;SDS011;4931;44.874;-1.092;2023-07-31T05:46:04;16.05;;;7.18;;
9783;SDS011;4931;44.874;-1.092;2023-07-31T05:48:31;21.10;;;7.70;;
9783;SDS011;4931;44.874;-1.092;2023-07-31T05:50:59;21.77;;;7.57;;
9783;SDS011;4931;44.874;-1.092;2023-07-31T05:53:24;19.20;;;7.40;;
9783;SDS011;4931;44.874;-1.092;2023-07-31T05:55:50;18.45;;;6.85;;
9783;SDS011;4931;44.874;-1.092;2023-07-31T05:58:15;15.85;;;6.95;;
9783;SDS011;4931;44.874;-1.092;2023-07-31T06:00:41;16.80;;;7.95;;
9783;SDS011;4931;44.874;-1.092;2023-07-31T06:03:06;19.67;;;7.30;;
9783;SDS011;4931;44.874;-1.092;2023-07-31T06:05:32;16.25;;;6.70;;
9783;SDS011;4931;44.874;-1.092;2023-07-31T06:07:57;17.58;;;7.28;;
9783;SDS011;4931;44.874;-1.092;2023-07-31T06:10:23;18.92;;;7.40;;
9783;SDS011;4931;44.874;-1.092;2023-07-31T06:12:48;19.92;;;6.70;;
9783;SDS011;4931;44.874;-1.092;2023-07-31T06:15:14;22.38;;;7.30;;
9783;SDS011;4931;44.874;-1.092;2023-07-31T06:17:40;18.90;;;7.30;;
9783;SDS011;4931;44.874;-1.092;2023-07-31T06:20:06;21.63;;;7.22;;
9783;SDS011;4931;44.874;-1.092;2023-07-31T06:22:32;19.40;;;6.90;;
9783;SDS011;4931;44.874;-1.092;2023-07-31T06:24:58;19.50;;;6.72;;
9783;SDS011;4931;44.874;-1.092;2023-07-31T06:27:23;22.50;;;6.95;;
9783;SDS011;4931;44.874;-1.092;2023-07-31T06:29:49;21.45;;;7.40;;
9783;SDS011;4931;44.874;-1.092;2023-07-31T06:32:14;22.95;;;6.80;;
9783;SDS011;4931;44.874;-1.092;2023-07-31T06:34:40;19.90;;;7.47;;
9783;SDS011;4931;44.874;-1.092;2023-07-31T06:37:05;16.73;;;6.43;;
9783;SDS011;4931;44.874;-1.092;2023-07-31T06:39:31;19.40;;;6.80;;
9783;SDS011;4931;44.874;-1.092;2023-07-31T06:41:56;18.77;;;6.32;;
9783;SDS011;4931;44.874;-1.092;2023-07-31T06:44:22;26.40;;;7.68;;
9783;SDS011;4931;44.874;-1.092;2023-07-31T06:46:47;21.08;;;7.22;;
9783;SDS011;4931;44.874;-1.092;2023-07-31T06:49:13;24.23;;;7.50;;
9783;SDS011;4931;44.874;-1.092;2023-07-31T06:51:40;16.20;;;6.55;;
9783;SDS011;4931;44.874;-1.092;2023-07-31T06:54:06;21.35;;;6.63;;
9783;SDS011;4931;44.874;-1.092;2023-07-31T06:56:33;18.20;;;7.10;;
9783;SDS011;4931;44.874;-1.092;2023-07-31T06:58:58;19.92;;;6.53;;
9783;SDS011;4931;44.874;-1.092;2023-07-31T07:01:24;27.30;;;8.35;;
9783;SDS011;4931;44.874;-1.092;2023-07-31T07:03:49;18.67;;;6.80;;
9783;SDS011;4931;44.874;-1.092;2023-07-31T07:06:18;19.27;;;7.38;;
9783;SDS011;4931;44.874;-1.092;2023-07-31T07:08:44;19.08;;;7.05;;
9783;SDS011;4931;44.874;-1.092;2023-07-31T07:11:10;25.35;;;7.60;;
9783;SDS011;4931;44.874;-1.092;2023-07-31T07:13:35;21.52;;;7.28;;
9783;SDS011;4931;44.874;-1.092;2023-07-31T07:16:01;22.13;;;7.32;;
9783;SDS011;4931;44.874;-1.092;2023-07-31T07:18:27;21.40;;;7.00;;
9783;SDS011;4931;44.874;-1.092;2023-07-31T07:20:53;17.00;;;6.68;;
9783;SDS011;4931;44.874;-1.092;2023-07-31T07:23:19;17.33;;;7.68;;
9783;SDS011;4931;44.874;-1.092;2023-07-31T07:25:46;19.02;;;7.10;;
9783;SDS011;4931;44.874;-1.092;2023-07-31T07:28:12;18.00;;;6.65;;
9783;SDS011;4931;44.874;-1.092;2023-07-31T07:30:37;14.32;;;6.13;;
9783;SDS011;4931;44.874;-1.092;2023-07-31T07:33:03;19.48;;;6.30;;
9783;SDS011;4931;44.874;-1.092;2023-07-31T07:35:28;17.08;;;6.85;;
9783;SDS011;4931;44.874;-1.092;2023-07-31T07:37:54;16.88;;;6.25;;
9783;SDS011;4931;44.874;-1.092;2023-07-31T07:40:20;17.70;;;6.70;;
9783;SDS011;4931;44.874;-1.092;2023-07-31T07:42:46;20.98;;;6.53;;
9783;SDS011;4931;44.874;-1.092;2023-07-31T07:45:11;19.38;;;6.43;;
9783;SDS011;4931;44.874;-1.092;2023-07-31T07:47:38;18.42;;;7.07;;
9783;SDS011;4931;44.874;-1.092;2023-07-31T07:50:05;16.63;;;7.05;;
9783;SDS011;4931;44.874;-1.092;2023-07-31T07:52:31;17.85;;;6.32;;
9783;SDS011;4931;44.874;-1.092;2023-07-31T07:54:57;17.77;;;6.32;;
9783;SDS011;4931;44.874;-1.092;2023-07-31T07:57:22;17.45;;;5.65;;
9783;SDS011;4931;44.874;-1.092;2023-07-31T07:59:48;19.10;;;6.00;;
9783;SDS011;4931;44.874;-1.092;2023-07-31T08:02:13;15.52;;;6.03;;
9783;SDS011;4931;44.874;-1.092;2023-07-31T08:04:39;16.23;;;5.90;;
9783;SDS011;4931;44.874;-1.092;2023-07-31T08:07:04;16.02;;;5.97;;
9783;SDS011;4931;44.874;-1.092;2023-07-31T08:09:30;13.23;;;6.45;;
9783;SDS011;4931;44.874;-1.092;2023-07-31T08:11:55;14.32;;;6.28;;
9783;SDS011;4931;44.874;-1.092;2023-07-31T08:14:23;15.88;;;5.68;;
9783;SDS011;4931;44.874;-1.092;2023-07-31T08:16:48;15.18;;;5.88;;
9783;SDS011;4931;44.874;-1.092;2023-07-31T08:19:13;17.98;;;6.03;;
9783;SDS011;4931;44.874;-1.092;2023-07-31T08:21:39;15.40;;;6.07;;
9783;SDS011;4931;44.874;-1.092;2023-07-31T08:24:04;13.55;;;5.32;;
9783;SDS011;4931;44.874;-1.092;2023-07-31T08:26:30;17.13;;;5.50;;
9783;SDS011;4931;44.874;-1.092;2023-07-31T08:28:55;18.50;;;6.65;;
9783;SDS011;4931;44.874;-1.092;2023-07-31T08:31:22;12.60;;;5.65;;
9783;SDS011;4931;44.874;-1.092;2023-07-31T08:33:47;15.27;;;5.80;;
9783;SDS011;4931;44.874;-1.092;2023-07-31T08:36:13;15.55;;;5.90;;
9783;SDS011;4931;44.874;-1.092;2023-07-31T08:38:38;13.02;;;5.13;;
9783;SDS011;4931;44.874;-1.092;2023-07-31T08:41:04;19.30;;;5.55;;
9783;SDS011;4931;44.874;-1.092;2023-07-31T08:43:30;15.63;;;5.43;;
9783;SDS011;4931;44.874;-1.092;2023-07-31T08:45:57;11.00;;;5.13;;
9783;SDS011;4931;44.874;-1.092;2023-07-31T08:48:23;12.32;;;5.32;;
9783;SDS011;4931;44.874;-1.092;2023-07-31T08:50:49;15.18;;;5.00;;
9783;SDS011;4931;44.874;-1.092;2023-07-31T08:53:17;16.67;;;4.88;;
9783;SDS011;4931;44.874;-1.092;2023-07-31T08:55:42;12.57;;;4.65;;
9783;SDS011;4931;44.874;-1.092;2023-07-31T08:58:09;13.20;;;4.40;;
9783;SDS011;4931;44.874;-1.092;2023-07-31T09:00:37;13.88;;;4.70;;
9783;SDS011;4931;44.874;-1.092;2023-07-31T09:03:15;12.55;;;4.30;;
9783;SDS011;4931;44.874;-1.092;2023-07-31T09:05:43;8.25;;;3.60;;
9783;SDS011;4931;44.874;-1.092;2023-07-31T09:08:10;14.45;;;4.05;;
9783;SDS011;4931;44.874;-1.092;2023-07-31T09:10:44;8.93;;;3.70;;
9783;SDS011;4931;44.874;-1.092;2023-07-31T09:13:16;8.57;;;3.33;;
9783;SDS011;4931;44.874;-1.092;2023-07-31T09:15:43;10.10;;;3.85;;
9783;SDS011;4931;44.874;-1.092;2023-07-31T09:18:10;8.45;;;3.40;;
9783;SDS011;4931;44.874;-1.092;2023-07-31T09:20:36;7.72;;;2.50;;
9783;SDS011;4931;44.874;-1.092;2023-07-31T09:23:10;10.38;;;3.22;;
9783;SDS011;4931;44.874;-1.092;2023-07-31T09:25:37;11.25;;;2.90;;
9783;SDS011;4931;44.874;-1.092;2023-07-31T09:28:05;7.95;;;2.28;;
9783;SDS011;4931;44.874;-1.092;2023-07-31T09:30:44;7.47;;;2.90;;
9783;SDS011;4931;44.874;-1.092;2023-07-31T09:33:11;9.43;;;2.80;;
9783;SDS011;4931;44.874;-1.092;2023-07-31T09:35:36;10.10;;;3.00;;
9783;SDS011;4931;44.874;-1.092;2023-07-31T09:38:06;8.10;;;2.60;;
9783;SDS011;4931;44.874;-1.092;2023-07-31T09:40:34;10.77;;;2.85;;
9783;SDS011;4931;44.874;-1.092;2023-07-31T09:43:02;6.97;;;2.58;;
9783;SDS011;4931;44.874;-1.092;2023-07-31T09:45:30;9.25;;;2.80;;
9783;SDS011;4931;44.874;-1.092;2023-07-31T09:47:59;7.97;;;3.00;;
9783;SDS011;4931;44.874;-1.092;2023-07-31T09:50:24;8.30;;;2.92;;
9783;SDS011;4931;44.874;-1.092;2023-07-31T09:52:50;5.32;;;2.33;;
9783;SDS011;4931;44.874;-1.092;2023-07-31T09:55:19;5.85;;;2.38;;
9783;SDS011;4931;44.874;-1.092;2023-07-31T09:57:48;6.45;;;2.58;;
9783;SDS011;4931;44.874;-1.092;2023-07-31T10:00:15;10.02;;;2.92;;
9783;SDS011;4931;44.874;-1.092;2023-07-31T10:02:46;8.60;;;3.10;;
9783;SDS011;4931;44.874;-1.092;2023-07-31T10:05:15;8.50;;;2.53;;
9783;SDS011;4931;44.874;-1.092;2023-07-31T10:07:42;13.65;;;2.80;;
9783;SDS011;4931;44.874;-1.092;2023-07-31T10:10:11;8.63;;;2.70;;
9783;SDS011;4931;44.874;-1.092;2023-07-31T10:12:36;7.82;;;2.88;;
9783;SDS011;4931;44.874;-1.092;2023-07-31T10:15:03;6.93;;;2.20;;
9783;SDS011;4931;44.874;-1.092;2023-07-31T10:17:29;6.35;;;2.40;;
9783;SDS011;4931;44.874;-1.092;2023-07-31T10:19:57;5.60;;;2.50;;
9783;SDS011;4931;44.874;-1.092;2023-07-31T10:22:26;7.60;;;2.67;;
9783;SDS011;4931;44.874;-1.092;2023-07-31T10:24:52;8.35;;;2.53;;
9783;SDS011;4931;44.874;-1.092;2023-07-31T10:27:20;10.80;;;2.92;;
9783;SDS011;4931;44.874;-1.092;2023-07-31T10:29:45;7.53;;;2.50;;
9783;SDS011;4931;44.874;-1.092;2023-07-31T10:32:13;8.52;;;2.85;;
9783;SDS011;4931;44.874;-1.092;2023-07-31T10:34:40;9.32;;;2.70;;
9783;SDS011;4931;44.874;-1.092;2023-07-31T10:37:19;8.55;;;2.63;;
9783;SDS011;4931;44.874;-1.092;2023-07-31T10:40:00;8.82;;;3.00;;
9783;SDS011;4931;44.874;-1.092;2023-07-31T10:42:28;6.55;;;2.90;;
9783;SDS011;4931;44.874;-1.092;2023-07-31T10:45:02;7.45;;;2.88;;
9783;SDS011;4931;44.874;-1.092;2023-07-31T10:47:29;8.88;;;2.92;;
9783;SDS011;4931;44.874;-1.092;2023-07-31T10:50:18;7.55;;;2.60;;
9783;SDS011;4931;44.874;-1.092;2023-07-31T10:52:49;7.97;;;2.78;;
9783;SDS011;4931;44.874;-1.092;2023-07-31T10:57:54;5.38;;;2.33;;
9783;SDS011;4931;44.874;-1.092;2023-07-31T11:00:22;11.32;;;2.92;;
9783;SDS011;4931;44.874;-1.092;2023-07-31T11:03:24;8.00;;;2.53;;
9783;SDS011;4931;44.874;-1.092;2023-07-31T11:11:11;8.68;;;2.95;;
9783;SDS011;4931;44.874;-1.092;2023-07-31T11:16:17;8.05;;;2.83;;
9783;SDS011;4931;44.874;-1.092;2023-07-31T11:18:45;8.45;;;2.58;;
9783;SDS011;4931;44.874;-1.092;2023-07-31T11:21:16;6.55;;;2.80;;
9783;SDS011;4931;44.874;-1.092;2023-07-31T11:26:12;7.10;;;2.65;;
9783;SDS011;4931;44.874;-1.092;2023-07-31T11:28:37;7.10;;;2.70;;
9783;SDS011;4931;44.874;-1.092;2023-07-31T11:31:03;8.45;;;3.00;;
9783;SDS011;4931;44.874;-1.092;2023-07-31T11:33:29;9.90;;;2.83;;
9783;SDS011;4931;44.874;-1.092;2023-07-31T11:35:56;8.27;;;3.15;;
9783;SDS011;4931;44.874;-1.092;2023-07-31T11:38:22;8.18;;;2.83;;
9783;SDS011;4931;44.874;-1.092;2023-07-31T11:40:49;11.32;;;3.38;;
9783;SDS011;4931;44.874;-1.092;2023-07-31T11:43:15;9.60;;;3.00;;
9783;SDS011;4931;44.874;-1.092;2023-07-31T11:45:45;10.35;;;2.90;;
9783;SDS011;4931;44.874;-1.092;2023-07-31T11:48:22;7.68;;;2.83;;
9783;SDS011;4931;44.874;-1.092;2023-07-31T11:50:52;8.40;;;3.08;;
9783;SDS011;4931;44.874;-1.092;2023-07-31T11:56:06;7.57;;;3.03;;
9783;SDS011;4931;44.874;-1.092;2023-07-31T11:58:34;7.80;;;3.08;;
9783;SDS011;4931;44.874;-1.092;2023-07-31T12:01:01;6.05;;;3.30;;
9783;SDS011;4931;44.874;-1.092;2023-07-31T12:03:27;9.95;;;3.00;;
9783;SDS011;4931;44.874;-1.092;2023-07-31T12:05:54;6.03;;;2.63;;
9783;SDS011;4931;44.874;-1.092;2023-07-31T12:08:22;8.77;;;3.05;;
9783;SDS011;4931;44.874;-1.092;2023-07-31T12:10:52;8.57;;;2.80;;
9783;SDS011;4931;44.874;-1.092;2023-07-31T12:13:23;8.70;;;3.08;;
9783;SDS011;4931;44.874;-1.092;2023-07-31T12:15:53;7.90;;;3.13;;
9783;SDS011;4931;44.874;-1.092;2023-07-31T12:18:21;6.28;;;2.90;;
9783;SDS011;4931;44.874;-1.092;2023-07-31T12:20:53;7.60;;;3.08;;
9783;SDS011;4931;44.874;-1.092;2023-07-31T12:23:21;6.70;;;2.78;;
9783;SDS011;4931;44.874;-1.092;2023-07-31T12:31:13;7.07;;;3.08;;
9783;SDS011;4931;44.874;-1.092;2023-07-31T12:33:48;7.95;;;3.00;;
9783;SDS011;4931;44.874;-1.092;2023-07-31T12:36:16;9.63;;;3.25;;
9783;SDS011;4931;44.874;-1.092;2023-07-31T12:38:42;7.88;;;3.35;;
9783;SDS011;4931;44.874;-1.092;2023-07-31T12:41:08;10.10;;;2.92;;
9783;SDS011;4931;44.874;-1.092;2023-07-31T12:43:34;6.05;;;2.60;;
9783;SDS011;4931;44.874;-1.092;2023-07-31T12:46:01;9.13;;;3.00;;
9783;SDS011;4931;44.874;-1.092;2023-07-31T12:48:27;10.25;;;3.20;;
9783;SDS011;4931;44.874;-1.092;2023-07-31T12:50:53;6.05;;;3.10;;
9783;SDS011;4931;44.874;-1.092;2023-07-31T12:53:18;7.68;;;3.17;;
9783;SDS011;4931;44.874;-1.092;2023-07-31T12:55:44;8.25;;;3.13;;
9783;SDS011;4931;44.874;-1.092;2023-07-31T12:58:09;7.00;;;2.95;;
9783;SDS011;4931;44.874;-1.092;2023-07-31T13:00:35;10.25;;;3.20;;
9783;SDS011;4931;44.874;-1.092;2023-07-31T13:03:00;9.45;;;3.45;;
9783;SDS011;4931;44.874;-1.092;2023-07-31T13:05:27;7.70;;;3.35;;
9783;SDS011;4931;44.874;-1.092;2023-07-31T13:07:53;8.73;;;3.13;;
9783;SDS011;4931;44.874;-1.092;2023-07-31T13:10:19;7.47;;;3.03;;
9783;SDS011;4931;44.874;-1.092;2023-07-31T13:12:45;8.65;;;3.35;;
9783;SDS011;4931;44.874;-1.092;2023-07-31T13:15:10;11.98;;;3.20;;
9783;SDS011;4931;44.874;-1.092;2023-07-31T13:17:37;7.70;;;2.75;;
9783;SDS011;4931;44.874;-1.092;2023-07-31T13:20:03;9.45;;;3.40;;
9783;SDS011;4931;44.874;-1.092;2023-07-31T13:22:30;9.45;;;2.90;;
9783;SDS011;4931;44.874;-1.092;2023-07-31T13:24:56;7.30;;;2.92;;
9783;SDS011;4931;44.874;-1.092;2023-07-31T13:27:21;9.27;;;2.90;;
9783;SDS011;4931;44.874;-1.092;2023-07-31T13:29:50;9.85;;;3.33;;
9783;SDS011;4931;44.874;-1.092;2023-07-31T13:32:18;8.93;;;3.30;;
9783;SDS011;4931;44.874;-1.092;2023-07-31T13:34:45;9.13;;;3.25;;
9783;SDS011;4931;44.874;-1.092;2023-07-31T13:37:11;10.93;;;3.30;;
9783;SDS011;4931;44.874;-1.092;2023-07-31T13:39:36;7.82;;;3.05;;
9783;SDS011;4931;44.874;-1.092;2023-07-31T13:42:05;7.47;;;3.35;;
9783;SDS011;4931;44.874;-1.092;2023-07-31T13:44:33;13.80;;;3.40;;
9783;SDS011;4931;44.874;-1.092;2023-07-31T13:47:01;8.10;;;2.83;;
9783;SDS011;4931;44.874;-1.092;2023-07-31T13:49:28;6.63;;;3.05;;
9783;SDS011;4931;44.874;-1.092;2023-07-31T13:51:54;7.85;;;3.13;;
9783;SDS011;4931;44.874;-1.092;2023-07-31T13:54:19;7.35;;;3.65;;
9783;SDS011;4931;44.874;-1.092;2023-07-31T13:56:44;7.05;;;3.13;;
9783;SDS011;4931;44.874;-1.092;2023-07-31T13:59:10;7.78;;;2.85;;
9783;SDS011;4931;44.874;-1.092;2023-07-31T14:01:36;8.23;;;3.00;;
9783;SDS011;4931;44.874;-1.092;2023-07-31T14:04:02;9.38;;;3.05;;
9783;SDS011;4931;44.874;-1.092;2023-07-31T14:06:27;8.10;;;2.92;;
9783;SDS011;4931;44.874;-1.092;2023-07-31T14:08:53;8.75;;;3.00;;
9783;SDS011;4931;44.874;-1.092;2023-07-31T14:11:18;6.97;;;3.17;;
9783;SDS011;4931;44.874;-1.092;2023-07-31T14:13:44;8.15;;;2.80;;
9783;SDS011;4931;44.874;-1.092;2023-07-31T14:16:09;7.38;;;2.97;;
9783;SDS011;4931;44.874;-1.092;2023-07-31T14:18:35;8.48;;;3.03;;
9783;SDS011;4931;44.874;-1.092;2023-07-31T14:21:00;8.73;;;3.00;;
9783;SDS011;4931;44.874;-1.092;2023-07-31T14:23:26;9.75;;;3.17;;
9783;SDS011;4931;44.874;-1.092;2023-07-31T14:25:51;8.48;;;3.30;;
9783;SDS011;4931;44.874;-1.092;2023-07-31T14:28:17;9.32;;;3.28;;
9783;SDS011;4931;44.874;-1.092;2023-07-31T14:30:42;8.70;;;3.03;;
9783;SDS011;4931;44.874;-1.092;2023-07-31T14:33:07;9.98;;;3.30;;
9783;SDS011;4931;44.874;-1.092;2023-07-31T14:35:33;10.40;;;3.30;;
9783;SDS011;4931;44.874;-1.092;2023-07-31T14:37:59;8.63;;;3.20;;
9783;SDS011;4931;44.874;-1.092;2023-07-31T14:40:25;12.18;;;3.22;;
9783;SDS011;4931;44.874;-1.092;2023-07-31T14:42:51;6.93;;;3.25;;
9783;SDS011;4931;44.874;-1.092;2023-07-31T14:45:16;9.07;;;3.47;;
9783;SDS011;4931;44.874;-1.092;2023-07-31T14:47:42;8.88;;;2.90;;
9783;SDS011;4931;44.874;-1.092;2023-07-31T14:50:07;10.05;;;3.50;;
9783;SDS011;4931;44.874;-1.092;2023-07-31T14:52:33;8.00;;;3.45;;
9783;SDS011;4931;44.874;-1.092;2023-07-31T14:54:59;8.88;;;3.22;;
9783;SDS011;4931;44.874;-1.092;2023-07-31T14:57:24;11.02;;;3.33;;
9783;SDS011;4931;44.874;-1.092;2023-07-31T14:59:50;7.65;;;3.00;;
9783;SDS011;4931;44.874;-1.092;2023-07-31T15:02:15;7.80;;;2.53;;
9783;SDS011;4931;44.874;-1.092;2023-07-31T15:04:41;10.10;;;3.38;;
9783;SDS011;4931;44.874;-1.092;2023-07-31T15:07:07;7.07;;;3.00;;
9783;SDS011;4931;44.874;-1.092;2023-07-31T15:09:32;9.27;;;3.15;;
9783;SDS011;4931;44.874;-1.092;2023-07-31T15:11:58;8.15;;;2.90;;
9783;SDS011;4931;44.874;-1.092;2023-07-31T15:14:24;7.57;;;2.60;;
9783;SDS011;4931;44.874;-1.092;2023-07-31T15:16:49;7.10;;;2.88;;
9783;SDS011;4931;44.874;-1.092;2023-07-31T15:19:15;7.80;;;3.05;;